Time;durP1;ratioP1;P1;durP2;ratioP2;P2;SDS_P1;SDS_P2;PMS_P1;PMS_P2;Temp;Humidity;BMP_temperature;BMP_pressure;BME280_temperature;BME280_humidity;BME280_pressure;Samples;Min_cycle;Max_cycle;Signal;HPM_P1;HPM_P2
2023/09/05 00:01:54;;;;;;;18.45;11.52;;;;;;;;;;5072924;28;20059;-62
2023/09/05 00:04:20;;;;;;;18.30;12.05;;;;;;;;;;5073357;28;20036;-64
2023/09/05 00:06:46;;;;;;;17.33;11.18;;;;;;;;;;5074145;28;20012;-64
2023/09/05 00:09:13;;;;;;;18.00;11.10;;;;;;;;;;5074479;28;20366;-64
2023/09/05 00:11:39;;;;;;;19.08;11.90;;;;;;;;;;5074716;28;20029;-64
2023/09/05 00:14:05;;;;;;;18.90;11.50;;;;;;;;;;5073724;28;20086;-64
2023/09/05 00:16:31;;;;;;;16.80;10.55;;;;;;;;;;5074015;28;20489;-63
2023/09/05 00:18:57;;;;;;;17.42;11.82;;;;;;;;;;5072532;28;20024;-62
2023/09/05 00:21:23;;;;;;;17.00;10.50;;;;;;;;;;5073704;28;20041;-62
2023/09/05 00:23:49;;;;;;;19.15;10.70;;;;;;;;;;5073660;28;20503;-64
2023/09/05 00:26:15;;;;;;;17.15;10.85;;;;;;;;;;5071714;28;20148;-64
2023/09/05 00:28:42;;;;;;;20.17;12.13;;;;;;;;;;5074119;28;20391;-64
2023/09/05 00:31:10;;;;;;;16.48;10.85;;;;;;;;;;5073905;28;20023;-64
2023/09/05 00:33:36;;;;;;;16.52;10.82;;;;;;;;;;5073964;28;20032;-64
2023/09/05 00:36:03;;;;;;;19.67;11.50;;;;;;;;;;5071978;28;20028;-64
2023/09/05 00:38:29;;;;;;;18.92;11.73;;;;;;;;;;5073885;28;20385;-64
2023/09/05 00:40:56;;;;;;;17.52;10.75;;;;;;;;;;5074154;28;20021;-63
2023/09/05 00:43:22;;;;;;;16.70;10.70;;;;;;;;;;5073696;28;20052;-63
2023/09/05 00:45:52;;;;;;;18.15;11.15;;;;;;;;;;5073228;28;20090;-63
2023/09/05 00:48:18;;;;;;;18.00;10.80;;;;;;;;;;5073545;28;20437;-63
2023/09/05 00:50:46;;;;;;;17.80;12.13;;;;;;;;;;5072571;28;20047;-60
2023/09/05 00:53:12;;;;;;;17.13;11.18;;;;;;;;;;5073361;28;20052;-63
2023/09/05 00:55:39;;;;;;;17.30;10.85;;;;;;;;;;5071433;28;20534;-64
2023/09/05 00:58:05;;;;;;;18.40;11.07;;;;;;;;;;5073116;28;20033;-61
2023/09/05 01:00:31;;;;;;;17.90;11.20;;;;;;;;;;5072995;28;20096;-63
2023/09/05 01:02:56;;;;;;;18.20;11.35;;;;;;;;;;5071766;28;20035;-64
2023/09/05 01:05:25;;;;;;;17.05;10.57;;;;;;;;;;5071947;28;20407;-64
2023/09/05 01:07:51;;;;;;;;;;;;;;;;;;5072102;28;20027;-64
2023/09/05 01:10:22;;;;;;;17.35;10.70;;;;;;;;;;5072675;28;19908;-64
2023/09/05 01:12:48;;;;;;;19.77;11.23;;;;;;;;;;5073359;28;20055;-65
2023/09/05 01:15:14;;;;;;;17.25;11.13;;;;;;;;;;5072529;28;20099;-65
2023/09/05 01:17:40;;;;;;;17.05;10.52;;;;;;;;;;5080267;28;20024;-65
2023/09/05 01:20:07;;;;;;;17.15;10.95;;;;;;;;;;5082746;28;20020;-65
2023/09/05 01:22:44;;;;;;;18.52;11.23;;;;;;;;;;5072251;28;20127;-64
2023/09/05 01:25:11;;;;;;;17.13;10.98;;;;;;;;;;5070955;28;20525;-66
2023/09/05 01:27:37;;;;;;;16.35;10.63;;;;;;;;;;5072614;28;20074;-65
2023/09/05 01:30:05;;;;;;;16.60;10.68;;;;;;;;;;5070961;28;20032;-65
2023/09/05 01:32:32;;;;;;;17.60;11.15;;;;;;;;;;5072207;28;20016;-65
2023/09/05 01:34:58;;;;;;;16.73;10.77;;;;;;;;;;5071391;28;20021;-65
2023/09/05 01:37:24;;;;;;;18.98;10.70;;;;;;;;;;5072283;28;20488;-62
2023/09/05 01:39:50;;;;;;;19.55;11.15;;;;;;;;;;5071990;28;20024;-64
2023/09/05 01:42:16;;;;;;;16.40;10.50;;;;;;;;;;5070813;28;20028;-65
2023/09/05 01:44:42;;;;;;;16.17;10.40;;;;;;;;;;5071516;28;20028;-65
2023/09/05 01:47:08;;;;;;;21.08;10.45;;;;;;;;;;5071046;28;20450;-64
2023/09/05 01:49:34;;;;;;;18.92;10.13;;;;;;;;;;5070820;28;20020;-65
2023/09/05 01:52:00;;;;;;;19.40;11.18;;;;;;;;;;5071515;28;20016;-65
2023/09/05 01:54:26;;;;;;;18.48;11.18;;;;;;;;;;5071272;28;20100;-64
2023/09/05 01:56:52;;;;;;;16.42;10.43;;;;;;;;;;5071579;28;20032;-65
2023/09/05 01:59:19;;;;;;;17.20;10.40;;;;;;;;;;5070452;28;20118;-64
2023/09/05 02:01:45;;;;;;;18.15;10.65;;;;;;;;;;5071669;28;20028;-63
2023/09/05 02:04:11;;;;;;;18.27;10.25;;;;;;;;;;5069561;28;20119;-63
2023/09/05 02:06:37;;;;;;;16.55;10.20;;;;;;;;;;5071425;28;20056;-65
2023/09/05 02:09:03;;;;;;;16.60;9.98;;;;;;;;;;5071586;28;20016;-65
2023/09/05 02:11:29;;;;;;;16.92;10.30;;;;;;;;;;5070638;28;20017;-64
2023/09/05 02:13:55;;;;;;;17.10;10.23;;;;;;;;;;5070745;28;20046;-63
2023/09/05 02:16:23;;;;;;;17.20;10.20;;;;;;;;;;5071185;28;20028;-65
2023/09/05 02:18:49;;;;;;;19.25;10.18;;;;;;;;;;5071253;28;20438;-65
2023/09/05 02:21:16;;;;;;;17.35;10.30;;;;;;;;;;5070020;28;20028;-65
2023/09/05 02:23:42;;;;;;;18.05;10.10;;;;;;;;;;5071038;28;20024;-64
2023/09/05 02:26:09;;;;;;;18.35;10.38;;;;;;;;;;5069061;28;20438;-64
2023/09/05 02:28:35;;;;;;;18.25;11.15;;;;;;;;;;5071061;28;20013;-65
2023/09/05 02:31:06;;;;;;;18.65;10.93;;;;;;;;;;5069973;28;20029;-65
2023/09/05 02:33:34;;;;;;;19.63;10.73;;;;;;;;;;5071619;28;20067;-64
2023/09/05 02:36:30;;;;;;;16.08;10.13;;;;;;;;;;5070355;28;20479;-65
2023/09/05 02:38:56;;;;;;;17.65;9.98;;;;;;;;;;5070094;28;20072;-64
2023/09/05 02:41:22;;;;;;;18.58;10.93;;;;;;;;;;5070785;28;20103;-64
2023/09/05 02:43:50;;;;;;;17.40;10.68;;;;;;;;;;5070710;28;20433;-65
2023/09/05 02:46:16;;;;;;;18.08;10.85;;;;;;;;;;5070084;28;20114;-64
2023/09/05 02:48:43;;;;;;;19.60;11.43;;;;;;;;;;5069766;28;20039;-64
2023/09/05 02:51:10;;;;;;;18.02;10.82;;;;;;;;;;5070756;28;20028;-64
2023/09/05 02:53:36;;;;;;;18.10;11.00;;;;;;;;;;5069211;28;20040;-66
2023/09/05 02:56:02;;;;;;;17.80;10.65;;;;;;;;;;5070095;28;20028;-64
2023/09/05 02:58:28;;;;;;;17.58;10.70;;;;;;;;;;5069378;28;20020;-65
2023/09/05 03:00:58;;;;;;;18.60;10.88;;;;;;;;;;5070735;28;20029;-65
2023/09/05 03:03:25;;;;;;;17.15;11.43;;;;;;;;;;5070695;28;20063;-65
2023/09/05 03:05:51;;;;;;;16.77;10.48;;;;;;;;;;5069064;28;20443;-66
2023/09/05 03:08:17;;;;;;;16.98;10.90;;;;;;;;;;5070890;28;20441;-66
2023/09/05 03:10:43;;;;;;;17.35;10.57;;;;;;;;;;5070686;28;20028;-65
2023/09/05 03:13:09;;;;;;;17.98;11.43;;;;;;;;;;5070747;28;20097;-65
2023/09/05 03:15:35;;;;;;;17.58;11.00;;;;;;;;;;5069057;28;20541;-66
2023/09/05 03:18:01;;;;;;;19.20;11.60;;;;;;;;;;5071468;28;20091;-67
2023/09/05 03:20:27;;;;;;;17.92;11.50;;;;;;;;;;5071248;28;20024;-66
2023/09/05 03:22:53;;;;;;;21.17;11.40;;;;;;;;;;5072770;28;20035;-65
2023/09/05 03:25:19;;;;;;;21.42;12.30;;;;;;;;;;5073945;28;20162;-66
2023/09/05 03:27:45;;;;;;;17.60;11.07;;;;;;;;;;5074966;28;20045;-66
2023/09/05 03:30:11;;;;;;;19.13;11.90;;;;;;;;;;5080346;28;20536;-67
2023/09/05 03:32:39;;;;;;;20.67;11.63;;;;;;;;;;5083271;28;20021;-65
2023/09/05 03:35:05;;;;;;;20.42;11.55;;;;;;;;;;5081475;28;20163;-65
2023/09/05 03:37:31;;;;;;;18.63;11.18;;;;;;;;;;5082204;28;20028;-65
2023/09/05 03:39:57;;;;;;;17.73;10.85;;;;;;;;;;5075135;28;20476;-66
2023/09/05 03:42:23;;;;;;;19.25;11.52;;;;;;;;;;5073210;28;20092;-65
2023/09/05 03:44:49;;;;;;;20.00;12.02;;;;;;;;;;5074355;28;20136;-64
2023/09/05 03:47:15;;;;;;;18.63;11.50;;;;;;;;;;5075134;28;20055;-65
2023/09/05 03:49:41;;;;;;;20.08;11.27;;;;;;;;;;5074219;28;20020;-64
2023/09/05 03:52:07;;;;;;;18.95;11.73;;;;;;;;;;5072580;28;20016;-65
2023/09/05 03:54:33;;;;;;;19.92;12.00;;;;;;;;;;5072281;28;20033;-64
2023/09/05 03:56:59;;;;;;;18.65;11.60;;;;;;;;;;5072401;28;20139;-63
2023/09/05 03:59:25;;;;;;;18.10;11.13;;;;;;;;;;5074090;28;20024;-65
2023/09/05 04:01:51;;;;;;;18.02;11.93;;;;;;;;;;5073923;28;20035;-64
2023/09/05 04:04:17;;;;;;;18.63;11.00;;;;;;;;;;5072827;28;20029;-65
2023/09/05 04:06:43;;;;;;;17.73;11.82;;;;;;;;;;5073772;28;20035;-65
2023/09/05 04:09:09;;;;;;;20.30;12.07;;;;;;;;;;5073651;28;20361;-65
2023/09/05 04:11:35;;;;;;;20.17;11.85;;;;;;;;;;5073673;28;20021;-65
2023/09/05 04:14:01;;;;;;;21.17;12.30;;;;;;;;;;5072905;28;20109;-65
2023/09/05 04:16:27;;;;;;;18.95;12.02;;;;;;;;;;5073158;28;20390;-65
2023/09/05 04:18:53;;;;;;;18.98;11.27;;;;;;;;;;5072231;28;20035;-65
2023/09/05 04:21:19;;;;;;;22.40;11.68;;;;;;;;;;5073551;28;20029;-64
2023/09/05 04:23:45;;;;;;;18.83;12.23;;;;;;;;;;5073329;28;20021;-65
2023/09/05 04:26:11;;;;;;;22.23;12.07;;;;;;;;;;5072481;28;20093;-64
2023/09/05 04:28:37;;;;;;;20.02;12.07;;;;;;;;;;5073167;28;20099;-66
2023/09/05 04:31:04;;;;;;;18.55;12.20;;;;;;;;;;5073114;28;20385;-64
2023/09/05 04:33:37;;;;;;;19.27;12.05;;;;;;;;;;5071132;28;20103;-67
2023/09/05 04:36:09;;;;;;;21.70;12.73;;;;;;;;;;5072383;28;20097;-64
2023/09/05 04:38:36;;;;;;;20.20;12.55;;;;;;;;;;5071888;28;20024;-63
2023/09/05 04:41:02;;;;;;;22.27;13.43;;;;;;;;;;5073236;28;20024;-64
2023/09/05 04:43:29;;;;;;;20.05;12.32;;;;;;;;;;5073166;28;20028;-65
2023/09/05 04:45:56;;;;;;;22.17;12.32;;;;;;;;;;5070959;28;20111;-65
2023/09/05 04:48:22;;;;;;;20.50;12.48;;;;;;;;;;5073130;28;20025;-65
2023/09/05 04:50:48;;;;;;;20.45;13.57;;;;;;;;;;5072667;28;20074;-64
2023/09/05 04:53:14;;;;;;;21.13;12.63;;;;;;;;;;5072400;28;20037;-66
2023/09/05 04:55:42;;;;;;;22.23;12.50;;;;;;;;;;5071889;28;20028;-65
2023/09/05 04:58:08;;;;;;;22.48;12.85;;;;;;;;;;5072576;28;20024;-64
2023/09/05 05:00:34;;;;;;;21.30;12.43;;;;;;;;;;5072459;28;20035;-64
2023/09/05 05:03:00;;;;;;;19.77;11.57;;;;;;;;;;5072645;28;20197;-65
2023/09/05 05:05:26;;;;;;;21.88;12.88;;;;;;;;;;5070812;28;20553;-64
2023/09/05 05:07:52;;;;;;;20.60;12.77;;;;;;;;;;5072566;28;20029;-65
2023/09/05 05:10:18;;;;;;;21.75;12.35;;;;;;;;;;5072881;28;20021;-64
2023/09/05 05:12:44;;;;;;;20.63;12.73;;;;;;;;;;5072872;28;20024;-64
2023/09/05 05:15:10;;;;;;;20.30;12.40;;;;;;;;;;5071706;28;20016;-65
2023/09/05 05:17:36;;;;;;;24.83;12.70;;;;;;;;;;5072339;28;20028;-66
2023/09/05 05:20:05;;;;;;;23.63;12.75;;;;;;;;;;5072303;28;20017;-65
2023/09/05 05:22:32;;;;;;;24.63;12.35;;;;;;;;;;5072224;28;20024;-66
2023/09/05 05:24:58;;;;;;;19.02;12.27;;;;;;;;;;5071332;28;20021;-65
2023/09/05 05:27:25;;;;;;;22.75;12.98;;;;;;;;;;5072169;28;20119;-66
2023/09/05 05:29:51;;;;;;;22.13;12.38;;;;;;;;;;5070928;28;20020;-65
2023/09/05 05:32:17;;;;;;;19.95;13.40;;;;;;;;;;5072327;28;20029;-66
2023/09/05 05:34:48;;;;;;;21.02;12.00;;;;;;;;;;5071093;28;20187;-64
2023/09/05 05:37:14;;;;;;;18.65;12.45;;;;;;;;;;5074446;28;20136;-65
2023/09/05 05:39:40;;;;;;;19.05;11.73;;;;;;;;;;5077253;28;20035;-65
2023/09/05 05:42:06;;;;;;;21.52;12.40;;;;;;;;;;5072916;28;20036;-65
2023/09/05 05:44:32;;;;;;;23.02;12.80;;;;;;;;;;5071079;28;20035;-66
2023/09/05 05:46:58;;;;;;;20.30;12.88;;;;;;;;;;5070503;28;20024;-65
2023/09/05 05:49:29;;;;;;;20.20;11.73;;;;;;;;;;5071892;28;20098;-65
2023/09/05 05:51:58;;;;;;;20.23;12.55;;;;;;;;;;5071537;28;20032;-63
2023/09/05 05:54:24;;;;;;;21.88;12.93;;;;;;;;;;5108578;23;20046;-56
2023/09/05 05:56:51;;;;;;;24.30;13.10;;;;;;;;;;5091713;28;20457;-54
2023/09/05 05:59:17;;;;;;;24.17;14.57;;;;;;;;;;5091827;28;20089;-57
2023/09/05 06:01:43;;;;;;;21.33;12.63;;;;;;;;;;5091534;28;20388;-55
2023/09/05 06:04:09;;;;;;;21.80;12.77;;;;;;;;;;5090484;28;20051;-57
2023/09/05 06:06:36;;;;;;;23.27;13.10;;;;;;;;;;5091177;28;20046;-56
2023/09/05 06:09:02;;;;;;;22.35;12.38;;;;;;;;;;5091246;28;20020;-55
2023/09/05 06:11:28;;;;;;;23.00;13.15;;;;;;;;;;5091230;28;20028;-55
2023/09/05 06:13:54;;;;;;;23.15;12.43;;;;;;;;;;5090560;28;20050;-54
2023/09/05 06:16:21;;;;;;;18.92;12.27;;;;;;;;;;5091201;28;20484;-55
2023/09/05 06:18:47;;;;;;;21.50;14.20;;;;;;;;;;5091416;28;20028;-53
2023/09/05 06:21:13;;;;;;;25.02;13.63;;;;;;;;;;5090750;28;20031;-57
2023/09/05 06:23:39;;;;;;;19.67;12.27;;;;;;;;;;5091076;28;20202;-56
2023/09/05 06:26:05;;;;;;;22.52;12.63;;;;;;;;;;5090441;28;20024;-54
2023/09/05 06:28:31;;;;;;;19.15;12.40;;;;;;;;;;5089427;28;20016;-53
2023/09/05 06:30:57;;;;;;;21.88;12.52;;;;;;;;;;5091115;28;20030;-52
2023/09/05 06:33:23;;;;;;;19.67;13.32;;;;;;;;;;5091011;28;20024;-53
2023/09/05 06:35:49;;;;;;;21.80;12.60;;;;;;;;;;5090477;28;20450;-54
2023/09/05 06:38:15;;;;;;;20.42;13.18;;;;;;;;;;5091762;28;20107;-57
2023/09/05 06:40:41;;;;;;;23.73;13.23;;;;;;;;;;5090350;28;20035;-55
2023/09/05 06:43:09;;;;;;;20.30;12.15;;;;;;;;;;5088787;28;20105;-55
2023/09/05 06:45:35;;;;;;;25.63;13.27;;;;;;;;;;5088131;28;20019;-56
2023/09/05 06:48:01;;;;;;;25.00;16.42;;;;;;;;;;5088979;28;20101;-56
2023/09/05 06:50:27;;;;;;;24.80;14.75;;;;;;;;;;5089068;28;20099;-57
2023/09/05 06:52:53;;;;;;;20.13;12.77;;;;;;;;;;5087620;28;20135;-57
2023/09/05 06:55:19;;;;;;;24.27;13.05;;;;;;;;;;5088611;28;20028;-55
2023/09/05 06:57:46;;;;;;;19.13;12.60;;;;;;;;;;5087795;28;20028;-55
2023/09/05 07:00:12;;;;;;;20.45;12.70;;;;;;;;;;5088371;28;20107;-55
2023/09/05 07:02:38;;;;;;;20.23;12.45;;;;;;;;;;5081567;28;20095;-58
2023/09/05 07:05:04;;;;;;;18.27;12.55;;;;;;;;;;5070028;28;20116;-56
2023/09/05 07:07:30;;;;;;;18.95;12.30;;;;;;;;;;5085185;28;20032;-54
2023/09/05 07:09:56;;;;;;;17.77;12.38;;;;;;;;;;5089493;28;20031;-58
2023/09/05 07:12:22;;;;;;;18.23;11.95;;;;;;;;;;5090783;28;20027;-55
2023/09/05 07:14:49;;;;;;;21.98;13.00;;;;;;;;;;5090268;28;20028;-57
2023/09/05 07:17:15;;;;;;;20.40;13.10;;;;;;;;;;5089375;28;20024;-57
2023/09/05 07:19:41;;;;;;;20.30;12.30;;;;;;;;;;5090736;28;20046;-57
2023/09/05 07:22:07;;;;;;;21.35;12.73;;;;;;;;;;5090730;28;20528;-58
2023/09/05 07:24:33;;;;;;;22.40;13.32;;;;;;;;;;5089768;28;20488;-56
2023/09/05 07:26:59;;;;;;;19.60;12.15;;;;;;;;;;5090970;28;20085;-57
2023/09/05 07:29:26;;;;;;;22.88;12.60;;;;;;;;;;5089477;28;20043;-57
2023/09/05 07:31:52;;;;;;;18.67;12.23;;;;;;;;;;5090551;28;20058;-56
2023/09/05 07:34:18;;;;;;;20.33;12.35;;;;;;;;;;5088368;28;20032;-58
2023/09/05 07:36:45;;;;;;;20.23;12.55;;;;;;;;;;5090807;28;20035;-54
2023/09/05 07:39:11;;;;;;;19.02;12.30;;;;;;;;;;5089318;28;20097;-57
2023/09/05 07:41:38;;;;;;;18.42;12.75;;;;;;;;;;5091218;28;20481;-58
2023/09/05 07:44:04;;;;;;;24.73;12.40;;;;;;;;;;5090063;28;20382;-57
2023/09/05 07:46:30;;;;;;;18.10;12.45;;;;;;;;;;5090195;28;20618;-55
2023/09/05 07:48:56;;;;;;;19.33;12.70;;;;;;;;;;5090633;28;20055;-57
2023/09/05 07:51:22;;;;;;;17.48;12.20;;;;;;;;;;5090750;28;20054;-54
2023/09/05 07:53:50;;;;;;;19.25;12.35;;;;;;;;;;5089942;28;20039;-55
2023/09/05 07:56:16;;;;;;;17.80;12.57;;;;;;;;;;5089925;28;20025;-56
2023/09/05 07:58:42;;;;;;;21.30;13.15;;;;;;;;;;5090574;28;20502;-56
2023/09/05 08:01:09;;;;;;;21.35;14.15;;;;;;;;;;5090665;28;20024;-55
2023/09/05 08:03:36;;;;;;;17.90;12.47;;;;;;;;;;5089251;28;20054;-56
2023/09/05 08:06:03;;;;;;;19.45;12.48;;;;;;;;;;5089786;28;20032;-52
2023/09/05 08:08:29;;;;;;;18.13;12.20;;;;;;;;;;5090893;28;20473;-56
2023/09/05 08:10:55;;;;;;;17.83;11.98;;;;;;;;;;5092239;28;20016;-58
2023/09/05 08:13:21;;;;;;;17.23;11.82;;;;;;;;;;5093589;28;20381;-58
2023/09/05 08:15:47;;;;;;;18.20;12.93;;;;;;;;;;5093306;28;20024;-57
2023/09/05 08:18:13;;;;;;;16.85;12.15;;;;;;;;;;5093756;28;20032;-56
2023/09/05 08:20:39;;;;;;;19.20;12.60;;;;;;;;;;5093430;28;20062;-57
2023/09/05 08:23:06;;;;;;;17.15;12.10;;;;;;;;;;5092194;28;20571;-56
2023/09/05 08:25:32;;;;;;;17.23;12.23;;;;;;;;;;5093178;28;20032;-56
2023/09/05 08:27:58;;;;;;;16.65;12.63;;;;;;;;;;5092310;28;20036;-57
2023/09/05 08:30:24;;;;;;;17.25;12.88;;;;;;;;;;5093509;28;20574;-58
2023/09/05 08:32:55;;;;;;;17.48;13.20;;;;;;;;;;5093343;28;20051;-57
2023/09/05 08:35:22;;;;;;;16.70;12.95;;;;;;;;;;5092696;28;20366;-54
2023/09/05 08:37:48;;;;;;;18.20;13.23;;;;;;;;;;5093206;28;20020;-54
2023/09/05 08:40:15;;;;;;;17.95;13.00;;;;;;;;;;5093448;28;20081;-58
2023/09/05 08:42:42;;;;;;;17.98;12.90;;;;;;;;;;5091233;28;20542;-57
2023/09/05 08:45:12;;;;;;;17.48;13.25;;;;;;;;;;5090992;28;20086;-57
2023/09/05 08:47:38;;;;;;;16.45;12.98;;;;;;;;;;5092019;28;20020;-55
2023/09/05 08:50:06;;;;;;;16.83;13.13;;;;;;;;;;5089203;28;20024;-58
2023/09/05 08:52:33;;;;;;;16.77;12.77;;;;;;;;;;5093017;28;20107;-57
2023/09/05 08:55:02;;;;;;;19.70;13.38;;;;;;;;;;5092742;28;20119;-54
2023/09/05 08:57:29;;;;;;;19.75;13.60;;;;;;;;;;5093059;28;20054;-57
2023/09/05 08:59:55;;;;;;;19.38;13.07;;;;;;;;;;5092985;28;20048;-56
2023/09/05 09:02:21;;;;;;;16.20;12.93;;;;;;;;;;4735922;28;10000067;-60
2023/09/05 09:04:51;;;;;;;17.60;13.00;;;;;;;;;;5078900;28;20048;-57
2023/09/05 09:07:17;;;;;;;16.83;12.77;;;;;;;;;;5081549;28;20157;-56
2023/09/05 09:09:43;;;;;;;17.95;13.32;;;;;;;;;;5077291;28;20671;-53
2023/09/05 09:12:09;;;;;;;17.65;13.90;;;;;;;;;;5076431;28;20021;-53
2023/09/05 09:14:35;;;;;;;16.80;13.43;;;;;;;;;;5083815;28;20060;-56
2023/09/05 09:17:04;;;;;;;19.00;13.18;;;;;;;;;;5089274;28;20062;-56
2023/09/05 09:19:31;;;;;;;16.85;13.30;;;;;;;;;;5086620;28;20472;-54
2023/09/05 09:22:01;;;;;;;17.08;13.40;;;;;;;;;;5068877;28;20048;-56
2023/09/05 09:24:34;;;;;;;16.67;13.40;;;;;;;;;;5068310;28;20143;-55
2023/09/05 09:27:04;;;;;;;19.20;13.13;;;;;;;;;;5068653;28;20016;-54
2023/09/05 09:29:30;;;;;;;16.60;13.15;;;;;;;;;;5069044;28;20024;-57
2023/09/05 09:32:04;;;;;;;17.73;13.38;;;;;;;;;;5068759;28;20089;-60
2023/09/05 09:34:31;;;;;;;17.55;13.70;;;;;;;;;;5067761;28;20051;-54
2023/09/05 09:36:58;;;;;;;19.52;14.30;;;;;;;;;;5074318;28;20099;-54
2023/09/05 09:39:24;;;;;;;17.55;14.40;;;;;;;;;;5088681;28;20051;-60
2023/09/05 09:41:50;;;;;;;17.00;13.55;;;;;;;;;;5089179;28;20454;-56
2023/09/05 09:44:25;;;;;;;17.05;13.90;;;;;;;;;;5087452;28;20110;-55
2023/09/05 09:46:52;;;;;;;16.48;13.63;;;;;;;;;;5088928;28;20024;-55
2023/09/05 09:49:20;;;;;;;18.23;14.05;;;;;;;;;;5087293;28;20553;-54
2023/09/05 09:51:54;;;;;;;16.60;14.10;;;;;;;;;;5088154;28;20073;-57
2023/09/05 09:54:22;;;;;;;19.95;14.45;;;;;;;;;;5087797;28;20084;-57
2023/09/05 09:56:48;;;;;;;19.85;15.30;;;;;;;;;;5088446;28;20036;-57
2023/09/05 09:59:18;;;;;;;16.50;13.88;;;;;;;;;;5088574;28;20431;-55
2023/09/05 10:01:44;;;;;;;16.20;13.63;;;;;;;;;;5088219;28;20093;-56
2023/09/05 10:04:10;;;;;;;16.23;14.02;;;;;;;;;;5086067;28;20024;-55
2023/09/05 10:06:37;;;;;;;16.98;13.68;;;;;;;;;;5088659;28;20024;-57
2023/09/05 10:09:03;;;;;;;17.10;14.65;;;;;;;;;;5088832;28;20719;-55
2023/09/05 10:11:29;;;;;;;17.70;13.57;;;;;;;;;;4735409;28;9999623;-58
2023/09/05 10:13:56;;;;;;;17.10;14.50;;;;;;;;;;5087635;28;20035;-57
2023/09/05 10:16:23;;;;;;;17.17;13.77;;;;;;;;;;5087977;28;20377;-52
2023/09/05 10:18:50;;;;;;;16.98;13.77;;;;;;;;;;5088239;28;20060;-56
2023/09/05 10:21:19;;;;;;;17.30;14.20;;;;;;;;;;5088065;28;20108;-55
2023/09/05 10:23:46;;;;;;;17.20;13.55;;;;;;;;;;5087491;28;20039;-56
2023/09/05 10:26:14;;;;;;;17.40;14.00;;;;;;;;;;5087443;28;20110;-56
2023/09/05 10:28:40;;;;;;;16.63;13.80;;;;;;;;;;5087632;28;20020;-54
2023/09/05 10:31:15;;;;;;;17.85;14.02;;;;;;;;;;5087640;28;20020;-55
2023/09/05 10:33:46;;;;;;;16.92;13.63;;;;;;;;;;5087333;28;20051;-52
2023/09/05 10:36:32;;;;;;;19.63;14.07;;;;;;;;;;5085675;28;20023;-51
2023/09/05 10:38:58;;;;;;;17.83;14.23;;;;;;;;;;5087670;28;20066;-56
2023/09/05 10:41:37;;;;;;;15.82;13.30;;;;;;;;;;5087227;28;20064;-53
2023/09/05 10:44:03;;;;;;;20.02;13.80;;;;;;;;;;5085346;28;20031;-55
2023/09/05 10:46:29;;;;;;;18.38;14.07;;;;;;;;;;5086814;28;20036;-53
2023/09/05 10:49:09;;;;;;;18.65;14.00;;;;;;;;;;5087344;28;20027;-53
2023/09/05 10:51:35;;;;;;;19.35;13.98;;;;;;;;;;5087435;28;20085;-55
2023/09/05 10:54:20;;;;;;;16.73;14.20;;;;;;;;;;5086465;28;20072;-54
2023/09/05 10:56:46;;;;;;;18.63;14.23;;;;;;;;;;5086364;28;20024;-51
2023/09/05 10:59:30;;;;;;;16.60;14.43;;;;;;;;;;5084347;28;20035;-53
2023/09/05 11:02:00;;;;;;;16.45;14.00;;;;;;;;;;5086255;28;20036;-56
2023/09/05 11:04:27;;;;;;;16.55;14.05;;;;;;;;;;5085633;28;20109;-56
2023/09/05 11:06:58;;;;;;;17.90;14.20;;;;;;;;;;5085194;28;20049;-56
2023/09/05 11:09:27;;;;;;;18.83;14.90;;;;;;;;;;5085245;28;20035;-55
2023/09/05 11:11:53;;;;;;;16.25;14.00;;;;;;;;;;5086504;28;20185;-53
2023/09/05 11:14:30;;;;;;;19.33;14.77;;;;;;;;;;5086955;28;20024;-54
2023/09/05 11:16:56;;;;;;;17.20;14.60;;;;;;;;;;5089349;28;20032;-54
2023/09/05 11:19:37;;;;;;;17.63;14.65;;;;;;;;;;5090534;28;20028;-54
2023/09/05 11:22:08;;;;;;;16.88;14.43;;;;;;;;;;5090329;28;20408;-52
2023/09/05 11:24:34;;;;;;;17.17;14.35;;;;;;;;;;5088324;28;20028;-53
2023/09/05 11:27:00;;;;;;;16.60;14.43;;;;;;;;;;5090648;28;20043;-55
2023/09/05 11:29:28;;;;;;;18.25;15.10;;;;;;;;;;5090071;28;20080;-53
2023/09/05 11:32:00;;;;;;;18.05;15.27;;;;;;;;;;5088710;28;20046;-53
2023/09/05 11:34:27;;;;;;;19.38;15.77;;;;;;;;;;5089556;28;20035;-53
2023/09/05 11:36:56;;;;;;;17.70;14.02;;;;;;;;;;5090628;28;20221;-58
2023/09/05 11:39:27;;;;;;;16.35;13.50;;;;;;;;;;5090523;28;20093;-56
2023/09/05 11:41:57;;;;;;;18.02;13.77;;;;;;;;;;5090544;28;20023;-56
2023/09/05 11:44:39;;;;;;;17.25;13.80;;;;;;;;;;5090891;28;20020;-55
2023/09/05 11:47:05;;;;;;;16.95;13.75;;;;;;;;;;5094730;28;20031;-56
2023/09/05 11:49:32;;;;;;;16.52;14.00;;;;;;;;;;5094127;28;20041;-56
2023/09/05 11:52:00;;;;;;;17.65;13.68;;;;;;;;;;5094372;28;20020;-58
2023/09/05 11:54:26;;;;;;;17.80;13.60;;;;;;;;;;5106890;22;20051;-61
2023/09/05 11:56:52;;;;;;;16.95;13.98;;;;;;;;;;5092068;28;20028;-61
2023/09/05 11:59:18;;;;;;;17.40;14.05;;;;;;;;;;5093215;28;20056;-60
2023/09/05 12:01:44;;;;;;;17.55;13.90;;;;;;;;;;5093289;28;20507;-60
2023/09/05 12:04:11;;;;;;;17.65;14.10;;;;;;;;;;5091243;28;20085;-57
2023/09/05 12:06:37;;;;;;;16.60;14.02;;;;;;;;;;5093243;28;20100;-59
2023/09/05 12:09:03;;;;;;;17.40;13.93;;;;;;;;;;5093111;28;20032;-59
2023/09/05 12:11:29;;;;;;;17.90;13.98;;;;;;;;;;5083849;28;20507;-58
2023/09/05 12:13:58;;;;;;;16.33;14.27;;;;;;;;;;5073144;28;20028;-57
2023/09/05 12:16:24;;;;;;;16.38;14.57;;;;;;;;;;5077060;28;20088;-53
2023/09/05 12:19:00;;;;;;;18.23;14.30;;;;;;;;;;5077129;28;20035;-58
2023/09/05 12:21:38;;;;;;;16.98;14.32;;;;;;;;;;5073828;28;20040;-58
2023/09/05 12:24:20;;;;;;;16.55;14.45;;;;;;;;;;5071946;28;20031;-58
2023/09/05 12:26:46;;;;;;;16.35;14.35;;;;;;;;;;5072918;28;20069;-60
2023/09/05 12:29:12;;;;;;;17.92;15.00;;;;;;;;;;5072392;28;20061;-56
2023/09/05 12:31:38;;;;;;;16.70;14.60;;;;;;;;;;5072571;28;20016;-58
2023/09/05 12:34:04;;;;;;;16.73;14.70;;;;;;;;;;5071811;28;20032;-60
2023/09/05 12:36:30;;;;;;;18.02;14.98;;;;;;;;;;5072677;28;20055;-61
2023/09/05 12:38:56;;;;;;;17.95;14.10;;;;;;;;;;5072374;28;20042;-59
2023/09/05 12:41:22;;;;;;;18.08;14.35;;;;;;;;;;5072351;28;20064;-58
2023/09/05 12:43:48;;;;;;;17.35;14.95;;;;;;;;;;5072087;28;20035;-56
2023/09/05 12:46:14;;;;;;;16.45;14.65;;;;;;;;;;5071584;28;20599;-58
2023/09/05 12:48:40;;;;;;;17.48;14.40;;;;;;;;;;5071937;28;20028;-58
2023/09/05 12:51:06;;;;;;;17.55;14.35;;;;;;;;;;5071948;28;20051;-60
2023/09/05 12:53:33;;;;;;;17.42;14.90;;;;;;;;;;5071498;28;20384;-55
2023/09/05 12:56:00;;;;;;;18.70;14.68;;;;;;;;;;5067407;28;20532;-58
2023/09/05 12:58:26;;;;;;;;;;;;;;;;;;5069787;28;20032;-59
2023/09/05 13:00:52;;;;;;;18.67;14.73;;;;;;;;;;5081992;28;19931;-64
2023/09/05 13:03:18;;;;;;;18.83;15.10;;;;;;;;;;4372098;28;9999927;-57
2023/09/05 13:05:44;;;;;;;17.77;15.18;;;;;;;;;;5068062;28;20016;-53
2023/09/05 13:08:10;;;;;;;17.55;15.40;;;;;;;;;;5069171;28;20023;-54
2023/09/05 13:10:36;;;;;;;17.25;15.25;;;;;;;;;;5068772;28;20515;-54
2023/09/05 13:13:02;;;;;;;16.92;15.02;;;;;;;;;;5068623;28;20029;-55
2023/09/05 13:15:29;;;;;;;17.50;14.68;;;;;;;;;;5067861;28;20096;-56
2023/09/05 13:17:55;;;;;;;17.10;14.60;;;;;;;;;;5068703;28;20052;-54
2023/09/05 13:20:21;;;;;;;17.58;14.98;;;;;;;;;;5068225;28;20033;-55
2023/09/05 13:22:51;;;;;;;16.70;14.88;;;;;;;;;;5068339;28;20020;-56
2023/09/05 13:25:21;;;;;;;18.33;15.65;;;;;;;;;;5066937;28;20032;-49
2023/09/05 13:27:48;;;;;;;18.20;15.10;;;;;;;;;;5068311;28;20074;-55
2023/09/05 13:30:14;;;;;;;18.27;14.60;;;;;;;;;;5067924;28;20530;-57
2023/09/05 13:32:40;;;;;;;18.55;14.77;;;;;;;;;;5068107;28;20123;-58
2023/09/05 13:35:08;;;;;;;18.02;14.90;;;;;;;;;;5067276;28;20021;-57
2023/09/05 13:37:34;;;;;;;;;;;;;;;;;;5067880;28;20032;-55
2023/09/05 13:40:00;;;;;;;16.75;14.35;;;;;;;;;;5066780;28;19905;-54
2023/09/05 13:42:26;;;;;;;16.65;14.20;;;;;;;;;;5069227;28;20037;-53
2023/09/05 13:44:51;;;;;;;16.75;14.80;;;;;;;;;;5069798;28;20025;-56
2023/09/05 13:47:17;;;;;;;17.05;14.95;;;;;;;;;;5071000;28;20429;-55
2023/09/05 13:49:43;;;;;;;18.63;14.57;;;;;;;;;;5070841;28;20056;-57
2023/09/05 13:52:09;;;;;;;17.77;15.07;;;;;;;;;;5070895;28;20020;-57
2023/09/05 13:54:37;;;;;;;17.30;14.63;;;;;;;;;;5069727;28;20392;-54
2023/09/05 13:57:03;;;;;;;18.55;15.32;;;;;;;;;;5070282;28;20134;-58
2023/09/05 13:59:32;;;;;;;18.25;15.55;;;;;;;;;;5071409;28;20173;-56
2023/09/05 14:01:58;;;;;;;17.67;14.80;;;;;;;;;;5050766;28;20108;-55
2023/09/05 14:04:24;;;;;;;17.20;14.68;;;;;;;;;;5049858;28;20029;-57
2023/09/05 14:06:51;;;;;;;16.40;14.60;;;;;;;;;;5049980;28;20100;-57
2023/09/05 14:09:17;;;;;;;17.40;15.20;;;;;;;;;;5050554;28;20028;-57
2023/09/05 14:11:43;;;;;;;19.58;15.45;;;;;;;;;;5059978;28;20334;-57
2023/09/05 14:14:09;;;;;;;17.20;14.48;;;;;;;;;;5069419;28;20094;-58
2023/09/05 14:16:35;;;;;;;17.58;14.25;;;;;;;;;;5069901;28;20075;-55
2023/09/05 14:19:01;;;;;;;16.83;14.95;;;;;;;;;;5069034;28;20055;-56